createdAt,value
2018-02-22T00:00:44.988Z,39.70
2018-02-22T00:01:44.647Z,39.60
2018-02-22T00:02:44.611Z,39.10
2018-02-22T00:03:44.579Z,41.40
2018-02-22T00:04:44.550Z,39.70
2018-02-22T00:05:44.528Z,38.70
2018-02-22T00:06:44.725Z,37.60
2018-02-22T00:07:44.442Z,40.70
2018-02-22T00:08:44.410Z,39.80
2018-02-22T00:09:44.377Z,41.50
2018-02-22T00:10:44.379Z,39.10
2018-02-22T00:11:44.308Z,39.00
2018-02-22T00:12:44.627Z,40.00
2018-02-22T00:13:44.238Z,40.80
2018-02-22T00:14:44.209Z,39.70
2018-02-22T00:15:44.178Z,39.10
2018-02-22T00:16:44.148Z,40.20
2018-02-22T00:17:44.117Z,40.20
2018-02-22T00:18:44.077Z,38.60
2018-02-22T00:19:44.049Z,38.80
2018-02-22T00:20:44.012Z,39.20
2018-02-22T00:21:43.979Z,39.00
2018-02-22T00:22:43.938Z,39.50
2018-02-22T00:23:43.911Z,38.20
2018-02-22T00:24:43.879Z,40.30
2018-02-22T00:25:43.844Z,39.40
2018-02-22T00:26:43.816Z,39.40
2018-02-22T00:27:43.787Z,39.20
2018-02-22T00:28:43.752Z,41.40
2018-02-22T00:29:43.706Z,39.90
2018-02-22T00:30:43.681Z,40.20
2018-02-22T00:31:43.643Z,40.10
2018-02-22T00:32:43.618Z,40.90
2018-02-22T00:33:43.587Z,40.50
2018-02-22T00:34:43.537Z,41.40
2018-02-22T00:35:43.510Z,39.20
2018-02-22T00:36:43.731Z,40.40
2018-02-22T00:37:43.452Z,38.30
2018-02-22T00:38:43.404Z,41.20
2018-02-22T00:39:43.376Z,41.90
2018-02-22T00:40:43.335Z,40.90
2018-02-22T00:41:43.615Z,42.80
2018-02-22T00:42:43.287Z,41.00
2018-02-22T00:43:43.252Z,40.40
2018-02-22T00:44:43.243Z,41.50
2018-02-22T00:45:43.182Z,41.90
2018-02-22T00:46:43.146Z,41.10
2018-02-22T00:47:43.410Z,41.10
2018-02-22T00:48:43.073Z,39.90
2018-02-22T00:49:43.047Z,41.10
2018-02-22T00:50:43.012Z,41.60
2018-02-22T00:51:42.969Z,40.70
2018-02-22T00:52:42.945Z,41.00
2018-02-22T00:53:43.168Z,41.30
2018-02-22T00:54:42.872Z,38.70
2018-02-22T00:55:42.841Z,40.90
2018-02-22T00:56:42.800Z,39.00
2018-02-22T00:57:42.768Z,39.70
2018-02-22T00:58:42.738Z,40.00
2018-02-22T00:59:42.964Z,41.60
2018-02-22T01:00:42.667Z,40.50
2018-02-22T01:01:42.635Z,38.90
2018-02-22T01:02:42.604Z,41.30
2018-02-22T01:03:42.570Z,40.80
2018-02-22T01:04:42.539Z,42.00
2018-02-22T01:05:42.510Z,40.50
2018-02-22T01:06:42.475Z,39.40
2018-02-22T01:07:42.436Z,40.70
2018-02-22T01:08:42.407Z,40.00
2018-02-22T01:09:42.380Z,40.70
2018-02-22T01:10:42.581Z,40.10
2018-02-22T01:11:42.296Z,40.80
2018-02-22T01:12:42.281Z,39.60
2018-02-22T01:13:42.241Z,40.50
2018-02-22T01:14:42.208Z,40.60
2018-02-22T01:15:42.172Z,39.70
2018-02-22T01:16:42.381Z,40.20
2018-02-22T01:17:42.101Z,41.40
2018-02-22T01:18:42.073Z,40.80
2018-02-22T01:19:42.045Z,40.20
2018-02-22T01:20:42.006Z,41.80
2018-02-22T01:21:41.970Z,39.40
2018-02-22T01:22:41.933Z,41.50
2018-02-22T01:23:41.895Z,41.50
2018-02-22T01:24:41.872Z,40.40
2018-02-22T01:25:41.845Z,40.70
2018-02-22T01:26:41.798Z,40.20
2018-02-22T01:27:41.772Z,41.40
2018-02-22T01:28:41.732Z,40.70
2018-02-22T01:29:41.701Z,41.80
2018-02-22T01:30:41.667Z,41.30
2018-02-22T01:31:41.636Z,43.30
2018-02-22T01:32:41.642Z,41.80
2018-02-22T01:33:41.557Z,40.50
2018-02-22T01:34:41.877Z,39.30
2018-02-22T01:35:41.502Z,40.00
2018-02-22T01:36:41.476Z,38.40
2018-02-22T01:37:41.436Z,38.60
2018-02-22T01:38:41.396Z,40.30
2018-02-22T01:39:41.361Z,40.50
2018-02-22T01:40:41.578Z,38.30
2018-02-22T01:41:41.308Z,39.90
2018-02-22T01:42:41.261Z,38.10
2018-02-22T01:43:41.227Z,40.90
2018-02-22T01:44:41.215Z,39.60
2018-02-22T01:45:41.164Z,40.50
2018-02-22T01:46:41.136Z,40.50
2018-02-22T01:47:41.096Z,40.40
2018-02-22T01:48:41.057Z,40.20
2018-02-22T01:49:41.028Z,40.50
2018-02-22T01:50:41.000Z,40.60
2018-02-22T01:51:41.223Z,41.10
2018-02-22T01:52:40.944Z,41.30
2018-02-22T01:53:40.900Z,41.90
2018-02-22T01:54:40.863Z,40.80
2018-02-22T01:55:40.835Z,41.60
2018-02-22T01:56:40.793Z,40.00
2018-02-22T01:57:41.061Z,41.00
2018-02-22T01:58:40.735Z,41.50
2018-02-22T01:59:40.692Z,42.00
2018-02-22T02:00:40.663Z,42.60
2018-02-22T02:01:40.626Z,41.50
2018-02-22T02:02:40.593Z,42.50
2018-02-22T02:03:40.565Z,42.90
2018-02-22T02:04:40.530Z,42.90
2018-02-22T02:05:40.495Z,42.80
2018-02-22T02:06:40.467Z,42.40
2018-02-22T02:07:40.430Z,40.40
2018-02-22T02:08:40.400Z,42.00
2018-02-22T02:09:40.666Z,41.70
2018-02-22T02:10:40.327Z,41.00
2018-02-22T02:11:40.292Z,40.80
2018-02-22T02:12:40.259Z,41.90
2018-02-22T02:13:40.229Z,42.70
2018-02-22T02:14:40.200Z,42.30
2018-02-22T02:15:40.409Z,42.30
2018-02-22T02:16:40.134Z,43.20
2018-02-22T02:17:40.090Z,44.20
2018-02-22T02:18:40.065Z,44.50
2018-02-22T02:19:40.024Z,44.10
2018-02-22T02:20:40.033Z,45.60
2018-02-22T02:21:39.962Z,45.60
2018-02-22T02:22:39.937Z,43.90
2018-02-22T02:23:39.902Z,42.60
2018-02-22T02:24:39.864Z,44.10
2018-02-22T02:25:39.828Z,41.80
2018-02-22T02:26:39.790Z,42.40
2018-02-22T02:27:39.758Z,41.70
2018-02-22T02:28:39.729Z,42.00
2018-02-22T02:29:39.689Z,40.90
2018-02-22T02:30:39.660Z,40.40
2018-02-22T02:31:39.618Z,40.60
2018-02-22T02:32:39.590Z,41.00
2018-02-22T02:33:39.551Z,41.80
2018-02-22T02:34:39.526Z,41.50
2018-02-22T02:35:39.489Z,41.10
2018-02-22T02:36:39.467Z,39.70
2018-02-22T02:37:39.426Z,40.20
2018-02-22T02:38:39.395Z,38.50
2018-02-22T02:39:39.356Z,41.30
2018-02-22T02:40:39.323Z,41.10
2018-02-22T02:41:39.296Z,39.50
2018-02-22T02:42:39.248Z,38.50
2018-02-22T02:43:39.225Z,38.70
2018-02-22T02:44:39.445Z,39.70
2018-02-22T02:45:39.157Z,39.30
2018-02-22T02:46:39.120Z,38.50
2018-02-22T02:47:39.093Z,38.60
2018-02-22T02:48:39.050Z,39.60
2018-02-22T02:49:39.050Z,37.40
2018-02-22T02:50:39.348Z,37.70
2018-02-22T02:51:38.955Z,39.00
2018-02-22T02:52:38.922Z,38.40
2018-02-22T02:53:38.896Z,39.20
2018-02-22T02:54:38.866Z,38.40
2018-02-22T02:55:38.832Z,39.70
2018-02-22T02:56:38.798Z,37.90
2018-02-22T02:57:38.765Z,38.00
2018-02-22T02:58:38.723Z,39.30
2018-02-22T02:59:38.695Z,38.50
2018-02-22T03:00:38.662Z,40.20
2018-02-22T03:01:38.627Z,39.80
2018-02-22T03:02:38.606Z,38.30
2018-02-22T03:03:38.556Z,39.60
2018-02-22T03:04:38.521Z,38.50
2018-02-22T03:05:38.490Z,39.40
2018-02-22T03:06:38.473Z,37.00
2018-02-22T03:07:38.679Z,39.00
2018-02-22T03:08:38.391Z,39.40
2018-02-22T03:09:38.372Z,38.40
2018-02-22T03:10:38.330Z,39.10
2018-02-22T03:11:38.297Z,38.50
2018-02-22T03:12:38.270Z,38.50
2018-02-22T03:13:38.240Z,38.60
2018-02-22T03:14:38.196Z,39.00
2018-02-22T03:15:38.163Z,39.00
2018-02-22T03:16:38.138Z,38.50
2018-02-22T03:17:38.106Z,39.00
2018-02-22T03:18:38.067Z,37.80
2018-02-22T03:19:38.328Z,37.60
2018-02-22T03:20:38.032Z,39.80
2018-02-22T03:21:37.969Z,39.90
2018-02-22T03:22:37.940Z,38.30
2018-02-22T03:23:37.905Z,39.90
2018-02-22T03:24:37.871Z,39.60
2018-02-22T03:25:38.133Z,38.30
2018-02-22T03:26:37.809Z,38.60
2018-02-22T03:27:37.785Z,40.20
2018-02-22T03:28:37.737Z,39.60
2018-02-22T03:29:37.705Z,38.00
2018-02-22T03:30:37.674Z,38.50
2018-02-22T03:31:37.635Z,39.40
2018-02-22T03:32:37.612Z,38.90
2018-02-22T03:33:37.577Z,39.00
2018-02-22T03:34:37.550Z,39.50
2018-02-22T03:35:37.513Z,38.50
2018-02-22T03:36:37.481Z,40.00
2018-02-22T03:37:37.450Z,39.70
2018-02-22T03:38:37.415Z,41.20
2018-02-22T03:39:37.378Z,40.80
2018-02-22T03:40:37.346Z,41.60
2018-02-22T03:41:37.320Z,39.80
2018-02-22T03:42:37.282Z,40.60
2018-02-22T03:43:37.502Z,39.30
2018-02-22T03:44:37.220Z,39.90
2018-02-22T03:45:37.184Z,38.60
2018-02-22T03:46:37.148Z,37.50
2018-02-22T03:47:37.111Z,39.30
2018-02-22T03:48:37.081Z,38.00
2018-02-22T03:49:37.052Z,39.60
2018-02-22T03:50:37.023Z,39.50
2018-02-22T03:51:36.985Z,40.30
2018-02-22T03:52:36.953Z,38.90
2018-02-22T03:53:36.924Z,37.90
2018-02-22T03:54:36.888Z,39.10
2018-02-22T03:55:36.860Z,37.90
2018-02-22T03:56:36.835Z,37.60
2018-02-22T03:57:36.789Z,39.30
2018-02-22T03:58:36.756Z,39.30
2018-02-22T03:59:36.722Z,40.30
2018-02-22T04:00:37.036Z,37.90
2018-02-22T04:01:36.659Z,38.30
2018-02-22T04:02:36.628Z,38.70
2018-02-22T04:03:36.592Z,38.20
2018-02-22T04:04:36.578Z,36.30
2018-02-22T04:05:36.523Z,36.70
2018-02-22T04:06:36.496Z,35.70
2018-02-22T04:07:36.464Z,35.40
2018-02-22T04:08:36.428Z,37.70
2018-02-22T04:09:36.402Z,36.60
2018-02-22T04:10:36.366Z,36.70
2018-02-22T04:11:36.331Z,37.30
2018-02-22T04:12:36.299Z,36.30
2018-02-22T04:13:36.268Z,36.60
2018-02-22T04:14:36.238Z,37.20
2018-02-22T04:15:36.197Z,37.80
2018-02-22T04:16:36.175Z,36.50
2018-02-22T04:17:36.382Z,36.90
2018-02-22T04:18:36.107Z,37.60
2018-02-22T04:19:36.084Z,36.80
2018-02-22T04:20:36.038Z,36.20
2018-02-22T04:21:36.004Z,35.70
2018-02-22T04:22:35.982Z,35.00
2018-02-22T04:23:36.194Z,35.30
2018-02-22T04:24:35.912Z,35.30
2018-02-22T04:25:35.875Z,35.50
2018-02-22T04:26:35.844Z,35.70
2018-02-22T04:27:35.811Z,37.10
2018-02-22T04:28:35.779Z,35.50
2018-02-22T04:29:36.055Z,34.60
2018-02-22T04:30:35.722Z,33.90
2018-02-22T04:31:35.682Z,32.90
2018-02-22T04:32:35.641Z,32.80
2018-02-22T04:33:35.613Z,33.90
2018-02-22T04:34:35.580Z,34.30
2018-02-22T04:35:35.556Z,33.20
2018-02-22T04:36:35.513Z,31.90
2018-02-22T04:37:35.486Z,32.60
2018-02-22T04:38:35.454Z,32.70
2018-02-22T04:39:35.425Z,32.50
2018-02-22T04:40:35.387Z,31.70
2018-02-22T04:41:35.352Z,32.10
2018-02-22T04:42:35.317Z,33.80
2018-02-22T04:43:35.290Z,31.70
2018-02-22T04:44:35.262Z,32.70
2018-02-22T04:45:35.228Z,31.80
2018-02-22T04:46:35.196Z,32.90
2018-02-22T04:47:35.161Z,32.80
2018-02-22T04:48:35.129Z,32.40
2018-02-22T04:49:35.097Z,33.80
2018-02-22T04:50:35.067Z,33.60
2018-02-22T04:51:35.032Z,34.00
2018-02-22T04:52:35.249Z,32.30
2018-02-22T04:53:34.972Z,33.30
2018-02-22T04:54:34.939Z,32.00
2018-02-22T04:55:34.898Z,31.80
2018-02-22T04:56:34.868Z,33.00
2018-02-22T04:57:34.843Z,32.70
2018-02-22T04:58:34.803Z,31.80
2018-02-22T04:59:34.773Z,32.50
2018-02-22T05:00:34.737Z,33.30
2018-02-22T05:01:34.710Z,33.90
2018-02-22T05:02:34.669Z,33.30
2018-02-22T05:03:34.637Z,32.60
2018-02-22T05:04:34.616Z,33.10
2018-02-22T05:05:34.576Z,33.80
2018-02-22T05:06:34.545Z,34.40
2018-02-22T05:07:34.511Z,32.90
2018-02-22T05:08:34.482Z,33.80
2018-02-22T05:09:34.446Z,33.50
2018-02-22T05:10:34.419Z,35.00
2018-02-22T05:11:34.394Z,34.10
2018-02-22T05:12:34.350Z,34.80
2018-02-22T05:13:34.323Z,33.70
2018-02-22T05:14:34.288Z,34.50
2018-02-22T05:15:34.263Z,32.90
2018-02-22T05:16:34.584Z,34.80
2018-02-22T05:17:34.192Z,34.30
2018-02-22T05:18:34.155Z,35.30
2018-02-22T05:19:34.119Z,34.50
2018-02-22T05:20:34.089Z,35.60
2018-02-22T05:21:34.057Z,35.10
2018-02-22T05:22:34.036Z,35.80
2018-02-22T05:23:33.995Z,36.30
2018-02-22T05:24:33.963Z,36.50
2018-02-22T05:25:33.923Z,37.40
2018-02-22T05:26:33.900Z,36.60
2018-02-22T05:27:33.863Z,37.10
2018-02-22T05:28:33.828Z,35.50
2018-02-22T05:29:33.797Z,35.80
2018-02-22T05:30:33.762Z,36.80
2018-02-22T05:31:33.734Z,36.50
2018-02-22T05:32:33.698Z,36.00
2018-02-22T05:33:33.679Z,36.20
2018-02-22T05:34:33.643Z,35.90
2018-02-22T05:35:33.600Z,36.40
2018-02-22T05:36:33.578Z,35.80
2018-02-22T05:37:33.550Z,36.50
2018-02-22T05:38:33.506Z,37.80
2018-02-22T05:39:33.486Z,37.60
2018-02-22T05:40:33.745Z,38.10
2018-02-22T05:41:33.403Z,37.70
2018-02-22T05:42:33.383Z,37.50
2018-02-22T05:43:33.351Z,37.00
2018-02-22T05:44:33.312Z,37.40
2018-02-22T05:45:33.287Z,38.00
2018-02-22T05:46:33.244Z,38.50
2018-02-22T05:47:33.212Z,36.70
2018-02-22T05:48:33.191Z,39.30
2018-02-22T05:49:33.156Z,37.30
2018-02-22T05:50:33.113Z,39.60
2018-02-22T05:51:33.085Z,38.20
2018-02-22T05:52:33.049Z,37.90
2018-02-22T05:53:33.017Z,36.80
2018-02-22T05:54:32.989Z,36.50
2018-02-22T05:55:32.965Z,39.10
2018-02-22T05:56:32.920Z,38.30
2018-02-22T05:57:33.398Z,38.60
2018-02-22T05:58:32.860Z,38.20
2018-02-22T05:59:32.833Z,39.40
2018-02-22T06:00:32.792Z,38.30
2018-02-22T06:01:32.769Z,37.50
2018-02-22T06:02:32.732Z,38.10
2018-02-22T06:03:32.697Z,38.30
2018-02-22T06:04:32.659Z,39.60
2018-02-22T06:05:32.636Z,39.40
2018-02-22T06:06:32.600Z,39.90
2018-02-22T06:07:32.575Z,39.30
2018-02-22T06:08:32.536Z,39.60
2018-02-22T06:09:32.805Z,40.30
2018-02-22T06:10:32.472Z,38.50
2018-02-22T06:11:32.448Z,39.60
2018-02-22T06:12:32.407Z,38.60
2018-02-22T06:13:32.373Z,39.20
2018-02-22T06:14:32.336Z,39.80
2018-02-22T06:15:32.309Z,37.80
2018-02-22T06:16:32.278Z,38.70
2018-02-22T06:17:32.245Z,39.40
2018-02-22T06:18:32.214Z,38.30
2018-02-22T06:19:32.182Z,39.30
2018-02-22T06:20:32.157Z,39.30
2018-02-22T06:21:32.118Z,39.00
2018-02-22T06:22:32.087Z,37.50
2018-02-22T06:23:32.056Z,36.80
2018-02-22T06:24:32.021Z,38.20
2018-02-22T06:25:31.994Z,35.60
2018-02-22T06:26:31.954Z,39.10
2018-02-22T06:27:31.922Z,37.20
2018-02-22T06:28:31.895Z,37.20
2018-02-22T06:29:31.860Z,36.70
2018-02-22T06:30:31.826Z,36.80
2018-02-22T06:31:31.797Z,37.40
2018-02-22T06:32:32.055Z,36.20
2018-02-22T06:33:31.723Z,36.60
2018-02-22T06:34:31.707Z,36.70
2018-02-22T06:35:31.671Z,37.90
2018-02-22T06:36:31.652Z,37.60
2018-02-22T06:37:31.601Z,35.00
2018-02-22T06:38:31.574Z,37.70
2018-02-22T06:39:31.538Z,36.70
2018-02-22T06:40:31.526Z,37.00
2018-02-22T06:41:31.477Z,35.70
2018-02-22T06:42:31.439Z,36.60
2018-02-22T06:43:31.410Z,37.00
2018-02-22T06:44:31.380Z,36.10
2018-02-22T06:45:31.349Z,37.20
2018-02-22T06:46:31.308Z,36.00
2018-02-22T06:47:31.273Z,36.50
2018-02-22T06:48:31.250Z,35.90
2018-02-22T06:49:31.212Z,35.20
2018-02-22T06:50:31.484Z,35.30
2018-02-22T06:51:31.149Z,35.70
2018-02-22T06:52:31.110Z,36.30
2018-02-22T06:53:31.084Z,37.10
2018-02-22T06:54:31.049Z,37.00
2018-02-22T06:55:31.016Z,36.00
2018-02-22T06:56:30.997Z,33.50
2018-02-22T06:57:30.958Z,34.40
2018-02-22T06:58:30.916Z,35.30
2018-02-22T06:59:30.890Z,33.80
2018-02-22T07:00:30.855Z,34.90
2018-02-22T07:01:30.828Z,33.30
2018-02-22T07:02:30.789Z,34.00
2018-02-22T07:03:30.764Z,34.10
2018-02-22T07:04:30.727Z,34.30
2018-02-22T07:05:30.723Z,33.20
2018-02-22T07:06:30.666Z,34.70
2018-02-22T07:07:30.932Z,34.20
2018-02-22T07:08:30.598Z,32.90
2018-02-22T07:09:30.567Z,34.70
2018-02-22T07:10:30.540Z,33.60
2018-02-22T07:11:30.507Z,34.90
2018-02-22T07:12:30.471Z,32.30
2018-02-22T07:13:30.439Z,33.90
2018-02-22T07:14:30.414Z,33.40
2018-02-22T07:15:30.368Z,33.50
2018-02-22T07:16:30.344Z,33.90
2018-02-22T07:17:30.309Z,33.60
2018-02-22T07:18:30.277Z,32.10
2018-02-22T07:19:30.241Z,34.80
2018-02-22T07:20:30.216Z,34.30
2018-02-22T07:21:30.183Z,33.90
2018-02-22T07:22:30.150Z,33.80
2018-02-22T07:23:30.116Z,34.60
2018-02-22T07:24:30.077Z,35.40
2018-02-22T07:25:30.056Z,35.00
2018-02-22T07:26:30.020Z,34.30
2018-02-22T07:27:29.989Z,35.70
2018-02-22T07:28:29.959Z,33.90
2018-02-22T07:29:29.929Z,39.40
2018-02-22T07:30:29.887Z,34.80
2018-02-22T07:31:29.865Z,34.50
2018-02-22T07:32:29.831Z,34.60
2018-02-22T07:33:29.792Z,34.40
2018-02-22T07:34:29.758Z,34.10
2018-02-22T07:35:29.739Z,34.30
2018-02-22T07:36:29.698Z,32.60
2018-02-22T07:37:29.668Z,32.60
2018-02-22T07:38:29.645Z,34.00
2018-02-22T07:39:29.605Z,30.70
2018-02-22T07:40:29.574Z,32.00
2018-02-22T07:41:29.536Z,32.40
2018-02-22T07:42:29.763Z,31.30
2018-02-22T07:43:29.484Z,31.10
2018-02-22T07:44:29.446Z,32.50
2018-02-22T07:45:29.419Z,31.90
2018-02-22T07:46:29.381Z,30.00
2018-02-22T07:47:29.346Z,32.00
2018-02-22T07:48:29.321Z,31.40
2018-02-22T07:49:29.298Z,31.60
2018-02-22T07:50:29.247Z,30.30
2018-02-22T07:51:29.227Z,31.40
2018-02-22T07:52:29.190Z,32.70
2018-02-22T07:53:29.155Z,31.50
2018-02-22T07:54:29.135Z,32.80
2018-02-22T07:55:29.095Z,33.40
2018-02-22T07:56:29.062Z,34.00
2018-02-22T07:57:29.030Z,33.70
2018-02-22T07:58:28.998Z,35.30
2018-02-22T07:59:28.965Z,32.50
2018-02-22T08:00:28.939Z,32.70
2018-02-22T08:01:28.912Z,32.00
2018-02-22T08:02:28.872Z,34.40
2018-02-22T08:03:28.839Z,41.40
2018-02-22T08:04:29.121Z,33.10
2018-02-22T08:05:28.777Z,33.10
2018-02-22T08:06:28.742Z,30.90
2018-02-22T08:07:28.711Z,34.60
2018-02-22T08:08:28.683Z,38.30
2018-02-22T08:09:28.649Z,38.30
2018-02-22T08:10:28.627Z,38.00
2018-02-22T08:11:28.596Z,33.20
2018-02-22T08:12:28.560Z,36.60
2018-02-22T08:13:28.537Z,34.90
2018-02-22T08:14:28.500Z,34.30
2018-02-22T08:15:28.468Z,32.10
2018-02-22T08:16:28.441Z,33.90
2018-02-22T08:17:28.403Z,30.80
2018-02-22T08:18:28.375Z,30.90
2018-02-22T08:19:28.347Z,31.10
2018-02-22T08:20:28.312Z,34.00
2018-02-22T08:21:28.290Z,33.30
2018-02-22T08:22:28.258Z,29.60
2018-02-22T08:23:28.232Z,29.50
2018-02-22T08:24:28.193Z,28.10
2018-02-22T08:25:28.153Z,29.00
2018-02-22T08:26:28.132Z,28.90
2018-02-22T08:27:28.088Z,28.50
2018-02-22T08:28:28.067Z,28.00
2018-02-22T08:29:28.057Z,28.30
2018-02-22T08:30:27.997Z,27.90
2018-02-22T08:31:27.971Z,28.00
2018-02-22T08:32:27.940Z,27.00
2018-02-22T08:33:27.909Z,27.80
2018-02-22T08:34:27.876Z,27.40
2018-02-22T08:35:27.853Z,27.50
2018-02-22T08:36:27.810Z,26.30
2018-02-22T08:37:27.786Z,26.20
2018-02-22T08:38:28.040Z,27.00
2018-02-22T08:39:27.724Z,26.70
2018-02-22T08:40:28.053Z,27.20
2018-02-22T08:41:27.668Z,27.00
2018-02-22T08:42:27.641Z,27.00
2018-02-22T08:43:27.615Z,29.20
2018-02-22T08:44:27.575Z,27.20
2018-02-22T08:45:27.547Z,28.60
2018-02-22T08:46:27.772Z,28.20
2018-02-22T08:47:27.515Z,29.10
2018-02-22T08:48:27.446Z,28.00
2018-02-22T08:49:27.419Z,28.60
2018-02-22T08:50:27.401Z,28.10
2018-02-22T08:51:27.366Z,27.40
2018-02-22T08:52:27.587Z,28.40
2018-02-22T08:53:27.298Z,28.50
2018-02-22T08:54:27.276Z,27.90
2018-02-22T08:55:27.241Z,28.60
2018-02-22T08:56:27.224Z,29.70
2018-02-22T08:57:27.183Z,28.60
2018-02-22T08:58:27.160Z,28.10
2018-02-22T08:59:27.119Z,26.80
2018-02-22T09:00:27.103Z,26.30
2018-02-22T09:01:27.073Z,27.40
2018-02-22T09:02:27.034Z,27.10
2018-02-22T09:03:27.000Z,29.10
2018-02-22T09:04:26.974Z,26.70
2018-02-22T09:05:26.945Z,27.90
2018-02-22T09:06:26.924Z,28.30
2018-02-22T09:07:26.891Z,26.10
2018-02-22T09:08:26.851Z,26.70
2018-02-22T09:09:26.834Z,27.70
2018-02-22T09:10:26.797Z,27.80
2018-02-22T09:11:26.783Z,27.50
2018-02-22T09:12:26.747Z,26.80
2018-02-22T09:13:26.723Z,26.30
2018-02-22T09:14:26.684Z,27.70
2018-02-22T09:15:26.910Z,27.40
2018-02-22T09:16:26.627Z,25.60
2018-02-22T09:17:26.607Z,27.70
2018-02-22T09:18:26.568Z,28.50
2018-02-22T09:19:26.533Z,28.60
2018-02-22T09:20:26.514Z,28.70
2018-02-22T09:21:26.495Z,27.30
2018-02-22T09:22:26.463Z,29.40
2018-02-22T09:23:26.433Z,28.90
2018-02-22T09:24:26.396Z,28.80
2018-02-22T09:25:26.373Z,29.90
2018-02-22T09:26:26.339Z,31.70
2018-02-22T09:27:26.304Z,30.10
2018-02-22T09:28:26.283Z,30.60
2018-02-22T09:29:26.248Z,30.20
2018-02-22T09:30:26.221Z,29.10
2018-02-22T09:31:26.189Z,28.90
2018-02-22T09:32:26.165Z,30.40
2018-02-22T09:33:26.133Z,29.20
2018-02-22T09:34:26.108Z,28.70
2018-02-22T09:35:26.079Z,29.60
2018-02-22T09:36:26.041Z,28.90
2018-02-22T09:37:26.019Z,30.20
2018-02-22T09:38:25.989Z,30.00
2018-02-22T09:39:25.963Z,29.80
2018-02-22T09:40:25.926Z,30.40
2018-02-22T09:41:25.899Z,30.70
2018-02-22T09:42:25.876Z,34.20
2018-02-22T09:43:25.850Z,30.40
2018-02-22T09:44:25.812Z,29.70
2018-02-22T09:45:25.788Z,29.70
2018-02-22T09:46:25.760Z,29.70
2018-02-22T09:47:25.721Z,29.40
2018-02-22T09:48:25.702Z,30.00
2018-02-22T09:49:25.695Z,29.90
2018-02-22T09:50:25.636Z,31.50
2018-02-22T09:51:25.619Z,29.90
2018-02-22T09:52:25.579Z,30.00
2018-02-22T09:53:25.555Z,30.20
2018-02-22T09:54:25.532Z,29.60
2018-02-22T09:55:25.503Z,30.60
2018-02-22T09:56:25.464Z,30.20
2018-02-22T09:57:25.439Z,27.20
2018-02-22T09:58:25.417Z,28.30
2018-02-22T09:59:25.395Z,31.20
2018-02-22T10:00:25.363Z,30.90
2018-02-22T10:01:25.334Z,32.70
2018-02-22T10:02:25.298Z,30.10
2018-02-22T10:03:25.280Z,29.60
2018-02-22T10:04:25.255Z,31.70
2018-02-22T10:05:25.233Z,29.20
2018-02-22T10:06:25.191Z,29.70
2018-02-22T10:07:25.177Z,29.90
2018-02-22T10:08:25.131Z,29.30
2018-02-22T10:09:25.106Z,27.90
2018-02-22T10:10:25.081Z,28.60
2018-02-22T10:11:25.062Z,28.60
2018-02-22T10:12:25.023Z,27.30
2018-02-22T10:13:25.002Z,27.40
2018-02-22T10:14:25.229Z,27.70
2018-02-22T10:15:24.950Z,29.10
2018-02-22T10:16:24.925Z,28.10
2018-02-22T10:17:24.902Z,28.10
2018-02-22T10:18:24.859Z,29.60
2018-02-22T10:19:24.842Z,29.10
2018-02-22T10:20:24.818Z,28.40
2018-02-22T10:21:24.824Z,27.00
2018-02-22T10:22:24.758Z,28.20
2018-02-22T10:23:24.733Z,28.60
2018-02-22T10:24:24.717Z,30.10
2018-02-22T10:25:24.675Z,29.40
2018-02-22T10:26:24.652Z,28.90
2018-02-22T10:27:24.624Z,28.60
2018-02-22T10:28:24.593Z,29.30
2018-02-22T10:29:24.569Z,28.70
2018-02-22T10:30:24.544Z,29.80
2018-02-22T10:31:24.520Z,29.00
2018-02-22T10:32:24.492Z,29.20
2018-02-22T10:33:24.494Z,28.00
2018-02-22T10:34:24.430Z,28.20
2018-02-22T10:35:24.411Z,28.60
2018-02-22T10:36:24.380Z,28.90
2018-02-22T10:37:24.375Z,26.80
2018-02-22T10:38:24.463Z,27.90
2018-02-22T10:39:24.295Z,27.80
2018-02-22T10:40:24.282Z,27.50
2018-02-22T10:41:24.248Z,27.30
2018-02-22T10:42:24.235Z,28.20
2018-02-22T10:43:24.458Z,27.00
2018-02-22T10:44:24.168Z,27.00
2018-02-22T10:45:24.150Z,28.00
2018-02-22T10:46:24.118Z,26.70
2018-02-22T10:47:24.085Z,26.70
2018-02-22T10:48:24.064Z,27.30
2018-02-22T10:49:24.040Z,28.40
2018-02-22T10:50:24.004Z,27.90
2018-02-22T10:51:23.980Z,27.80
2018-02-22T10:52:23.959Z,26.60
2018-02-22T10:53:23.928Z,26.10
2018-02-22T10:54:23.897Z,27.40
2018-02-22T10:55:23.880Z,26.80
2018-02-22T10:56:23.846Z,26.50
2018-02-22T10:57:23.819Z,27.30
2018-02-22T10:58:23.798Z,26.10
2018-02-22T10:59:23.768Z,25.80
2018-02-22T11:00:23.738Z,25.90
2018-02-22T11:01:23.710Z,25.90
2018-02-22T11:02:23.745Z,25.60
2018-02-22T11:03:23.665Z,24.20
2018-02-22T11:04:23.636Z,24.10
2018-02-22T11:05:23.603Z,23.80
2018-02-22T11:06:23.573Z,23.00
2018-02-22T11:07:23.544Z,26.00
2018-02-22T11:08:23.525Z,24.40
2018-02-22T11:09:23.516Z,25.90
2018-02-22T11:10:23.464Z,25.80
2018-02-22T11:11:23.442Z,26.20
2018-02-22T11:12:23.410Z,31.30
2018-02-22T11:13:23.391Z,38.60
2018-02-22T11:14:23.366Z,32.00
2018-02-22T11:15:23.366Z,34.10
2018-02-22T11:16:23.312Z,26.80
2018-02-22T11:17:23.293Z,25.70
2018-02-22T11:18:23.278Z,24.70
2018-02-22T11:19:23.239Z,23.10
2018-02-22T11:20:23.202Z,24.70
2018-02-22T11:21:23.179Z,24.00
2018-02-22T11:22:23.154Z,24.90
2018-02-22T11:23:23.132Z,25.70
2018-02-22T11:24:23.097Z,28.20
2018-02-22T11:25:23.076Z,26.70
2018-02-22T11:26:23.041Z,27.10
2018-02-22T11:27:23.009Z,26.80
2018-02-22T11:28:22.985Z,25.10
2018-02-22T11:29:22.958Z,23.30
2018-02-22T11:30:22.935Z,23.70
2018-02-22T11:31:22.912Z,24.10
2018-02-22T11:32:22.880Z,24.50
2018-02-22T11:33:22.915Z,23.50
2018-02-22T11:34:22.831Z,24.90
2018-02-22T11:35:22.799Z,25.10
2018-02-22T11:36:22.774Z,23.40
2018-02-22T11:37:22.760Z,25.40
2018-02-22T11:38:22.742Z,27.60
2018-02-22T11:39:22.693Z,28.60
2018-02-22T11:40:22.675Z,26.60
2018-02-22T11:41:22.643Z,25.80
2018-02-22T11:42:22.616Z,24.70
2018-02-22T11:43:22.592Z,24.30
2018-02-22T11:44:22.566Z,23.50
2018-02-22T11:45:22.530Z,25.70
2018-02-22T11:46:22.516Z,26.10
2018-02-22T11:47:22.491Z,24.00
2018-02-22T11:48:22.461Z,23.10
2018-02-22T11:49:22.466Z,23.60
2018-02-22T11:50:22.415Z,25.20
2018-02-22T11:51:22.396Z,23.90
2018-02-22T11:52:22.358Z,25.20
2018-02-22T11:53:22.334Z,24.40
2018-02-22T11:54:22.294Z,24.80
2018-02-22T11:55:22.273Z,24.20
2018-02-22T11:56:22.247Z,25.30
2018-02-22T11:57:22.222Z,25.40
2018-02-22T11:58:22.190Z,24.90
2018-02-22T11:59:22.471Z,25.90
2018-02-22T12:00:22.143Z,26.00
2018-02-22T12:01:22.126Z,25.70
2018-02-22T12:02:22.100Z,27.50
2018-02-22T12:03:22.073Z,26.00
2018-02-22T12:04:22.038Z,25.20
2018-02-22T12:05:22.007Z,25.60
2018-02-22T12:06:21.987Z,25.70
2018-02-22T12:07:21.956Z,25.60
2018-02-22T12:08:21.936Z,25.00
2018-02-22T12:09:21.909Z,25.90
2018-02-22T12:10:21.873Z,26.20
2018-02-22T12:11:21.853Z,25.40
2018-02-22T12:12:21.831Z,21.60
2018-02-22T12:13:21.806Z,23.20
2018-02-22T12:14:21.772Z,21.70
2018-02-22T12:15:21.748Z,22.60
2018-02-22T12:16:21.740Z,24.70
2018-02-22T12:17:21.948Z,25.80
2018-02-22T12:18:21.673Z,23.40
2018-02-22T12:19:21.695Z,23.40
2018-02-22T12:20:21.609Z,24.90
2018-02-22T12:21:21.585Z,24.40
2018-02-22T12:22:21.577Z,25.70
2018-02-22T12:23:21.798Z,24.90
2018-02-22T12:24:21.522Z,26.80
2018-02-22T12:25:21.495Z,24.00
2018-02-22T12:26:21.454Z,23.80
2018-02-22T12:27:21.428Z,25.80
2018-02-22T12:28:21.398Z,25.70
2018-02-22T12:29:21.375Z,26.00
2018-02-22T12:30:21.356Z,26.10
2018-02-22T12:31:21.328Z,25.10
2018-02-22T12:32:21.305Z,25.60
2018-02-22T12:33:21.274Z,25.50
2018-02-22T12:34:21.246Z,26.10
2018-02-22T12:35:21.218Z,28.10
2018-02-22T12:36:21.195Z,25.10
2018-02-22T12:37:21.161Z,26.30
2018-02-22T12:38:21.138Z,25.50
2018-02-22T12:39:21.107Z,26.20
2018-02-22T12:40:21.078Z,25.80
2018-02-22T12:41:21.047Z,26.80
2018-02-22T12:42:21.029Z,26.00
2018-02-22T12:43:21.009Z,25.90
2018-02-22T12:44:20.976Z,25.30
2018-02-22T12:45:20.938Z,25.50
2018-02-22T12:46:21.170Z,25.40
2018-02-22T12:47:20.888Z,25.40
2018-02-22T12:48:20.858Z,25.90
2018-02-22T12:49:20.829Z,25.40
2018-02-22T12:50:20.802Z,24.70
2018-02-22T12:51:20.781Z,24.30
2018-02-22T12:52:20.756Z,24.10